createdAt,value
2023-04-16T00:01:46.912Z,100869.66
2023-04-16T00:04:33.886Z,100876.63
2023-04-16T00:07:10.802Z,100866.31
2023-04-16T00:09:47.024Z,100869.00
2023-04-16T00:12:23.054Z,100875.63
2023-04-16T00:14:54.516Z,100873.16
2023-04-16T00:17:36.675Z,100884.63
2023-04-16T00:20:14.336Z,100882.28
2023-04-16T00:23:17.429Z,100880.28
2023-04-16T00:26:10.488Z,100876.97
2023-04-16T00:28:49.994Z,100880.97
2023-04-16T00:31:21.118Z,100881.97
2023-04-16T00:34:05.816Z,100885.94
2023-04-16T00:36:39.423Z,100885.13
2023-04-16T00:39:12.358Z,100877.47
2023-04-16T00:41:46.419Z,100884.13
2023-04-16T00:44:16.605Z,100874.97
2023-04-16T00:46:47.447Z,100885.63
2023-04-16T00:49:17.889Z,100885.63
2023-04-16T00:51:48.270Z,100887.28
2023-04-16T00:54:21.452Z,100881.47
2023-04-16T00:56:52.446Z,100882.28
2023-04-16T00:59:23.030Z,100882.59
2023-04-16T01:01:53.313Z,100891.56
2023-04-16T01:04:23.831Z,100895.38
2023-04-16T01:06:54.044Z,100892.72
2023-04-16T01:09:26.907Z,100888.91
2023-04-16T01:11:56.978Z,100887.78
2023-04-16T01:14:27.060Z,100890.78
2023-04-16T01:16:57.205Z,100898.91
2023-04-16T01:19:28.825Z,100899.25
2023-04-16T01:22:01.738Z,100898.88
2023-04-16T01:24:31.973Z,100900.53
2023-04-16T01:27:02.538Z,100901.19
2023-04-16T01:29:32.774Z,100904.34
2023-04-16T01:32:04.064Z,100900.69
2023-04-16T01:34:39.628Z,100906.56
2023-04-16T01:37:12.566Z,100912.38
2023-04-16T01:39:42.689Z,100909.22
2023-04-16T01:42:12.722Z,100909.88
2023-04-16T01:44:42.725Z,100912.88
2023-04-16T01:47:12.959Z,100906.38
2023-04-16T01:49:44.118Z,100908.88
2023-04-16T01:52:16.987Z,100907.22
2023-04-16T01:54:47.170Z,100904.22
2023-04-16T01:57:17.272Z,100908.88
2023-04-16T01:59:47.501Z,100912.16
2023-04-16T02:02:18.917Z,100918.81
2023-04-16T02:04:49.401Z,100915.03
2023-04-16T02:07:22.261Z,100916.53
2023-04-16T02:09:52.963Z,100919.19
2023-04-16T02:12:23.501Z,100925.50
2023-04-16T02:14:53.581Z,100919.50
2023-04-16T02:17:24.152Z,100923.50
2023-04-16T02:20:08.124Z,100919.84
2023-04-16T02:22:43.577Z,100923.16
2023-04-16T02:25:17.047Z,100924.13
2023-04-16T02:27:47.163Z,100923.84
2023-04-16T02:30:28.859Z,100930.13
2023-04-16T02:32:59.244Z,100924.47
2023-04-16T02:35:30.446Z,100933.94
2023-04-16T02:38:04.369Z,100930.59
2023-04-16T02:40:35.263Z,100937.91
2023-04-16T02:43:05.912Z,100933.94
2023-04-16T02:45:36.404Z,100940.56
2023-04-16T02:48:07.433Z,100939.06
2023-04-16T02:50:37.556Z,100938.72
2023-04-16T02:53:10.951Z,100944.38
2023-04-16T02:55:41.296Z,100940.72
2023-04-16T02:58:11.536Z,100946.03
2023-04-16T03:00:41.686Z,100942.38
2023-04-16T03:03:11.801Z,100939.72
2023-04-16T03:05:42.000Z,100943.38
2023-04-16T03:08:14.793Z,100947.53
2023-04-16T03:10:44.922Z,100945.84
2023-04-16T03:13:14.988Z,100951.34
2023-04-16T03:15:45.048Z,100949.66
2023-04-16T03:18:15.222Z,100955.16
2023-04-16T03:20:45.587Z,100957.34
2023-04-16T03:23:18.349Z,100959.50
2023-04-16T03:25:48.605Z,100957.34
2023-04-16T03:28:21.570Z,100957.16
2023-04-16T03:30:55.359Z,100963.97
2023-04-16T03:33:26.373Z,100958.16
2023-04-16T03:35:59.869Z,100960.97
2023-04-16T03:38:36.349Z,100968.28
2023-04-16T03:41:06.860Z,100962.97
2023-04-16T03:43:37.155Z,100969.59
2023-04-16T03:46:08.184Z,100964.78
2023-04-16T03:48:38.460Z,100975.09
2023-04-16T03:51:09.050Z,100973.09
2023-04-16T03:53:41.788Z,100975.25
2023-04-16T03:56:12.186Z,100976.88
2023-04-16T03:58:42.305Z,100983.84
2023-04-16T04:01:12.362Z,100990.13
2023-04-16T04:03:42.820Z,100985.44
2023-04-16T04:06:13.396Z,100989.72
2023-04-16T04:08:46.283Z,100994.16
2023-04-16T04:11:17.675Z,100994.16
2023-04-16T04:13:48.327Z,101004.25
2023-04-16T04:16:18.403Z,101001.59
2023-04-16T04:18:48.505Z,101001.00
2023-04-16T04:21:18.681Z,101003.19
2023-04-16T04:23:51.508Z,101005.47
2023-04-16T04:26:21.631Z,101002.81
2023-04-16T04:28:51.820Z,101003.50
2023-04-16T04:31:22.267Z,101004.66
2023-04-16T04:33:52.491Z,101005.31
2023-04-16T04:36:22.708Z,101010.97
2023-04-16T04:38:56.082Z,101006.81
2023-04-16T04:41:27.054Z,101012.66
2023-04-16T04:43:57.262Z,101017.31
2023-04-16T04:46:28.948Z,101012.00
2023-04-16T04:49:01.912Z,101013.34
2023-04-16T04:51:32.073Z,101021.06
2023-04-16T04:54:04.740Z,101023.25
2023-04-16T04:56:34.941Z,101032.91
2023-04-16T04:59:05.024Z,101025.59
2023-04-16T05:01:36.445Z,101033.72
2023-04-16T05:04:06.859Z,101037.06
2023-04-16T05:06:37.002Z,101045.69
2023-04-16T05:09:11.933Z,101036.16
2023-04-16T05:11:42.203Z,101042.13
2023-04-16T05:14:12.316Z,101045.91
2023-04-16T05:16:42.352Z,101050.78
2023-04-16T05:19:12.537Z,101048.56
2023-04-16T05:21:42.588Z,101058.50
2023-04-16T05:24:19.368Z,101050.53
2023-04-16T05:26:49.379Z,101056.25
2023-04-16T05:29:19.418Z,101060.88
2023-04-16T05:31:49.559Z,101063.22
2023-04-16T05:34:19.672Z,101062.06
2023-04-16T05:36:49.856Z,101067.53
2023-04-16T05:39:22.684Z,101070.50
2023-04-16T05:41:55.897Z,101062.38
2023-04-16T05:44:26.022Z,101069.81
2023-04-16T05:46:56.037Z,101068.09
2023-04-16T05:49:26.140Z,101070.75
2023-04-16T05:51:56.274Z,101070.91
2023-04-16T05:54:28.986Z,101075.56
2023-04-16T05:56:59.459Z,101078.53
2023-04-16T05:59:29.535Z,101082.63
2023-04-16T06:02:00.039Z,101079.59
2023-04-16T06:04:31.152Z,101085.91
2023-04-16T06:07:01.167Z,101084.31
2023-04-16T06:09:33.896Z,101082.53
2023-04-16T06:12:06.655Z,101087.69
2023-04-16T06:14:36.810Z,101090.88
2023-04-16T06:17:06.867Z,101093.03
2023-04-16T06:19:38.716Z,101092.47
2023-04-16T06:22:08.838Z,101087.50
2023-04-16T06:24:41.544Z,101098.44
2023-04-16T06:27:11.568Z,101099.63
2023-04-16T06:29:42.044Z,101111.13
2023-04-16T06:32:12.167Z,101110.66
2023-04-16T06:34:42.163Z,101107.00
2023-04-16T06:37:12.245Z,101110.84
2023-04-16T06:39:45.022Z,101115.50
2023-04-16T06:42:15.102Z,101111.91
2023-04-16T06:44:45.327Z,101109.59
2023-04-16T06:47:15.321Z,101117.41
2023-04-16T06:49:45.494Z,101113.91
2023-04-16T06:52:15.953Z,101115.41
2023-04-16T06:54:48.782Z,101114.59
2023-04-16T06:57:19.036Z,101117.75
2023-04-16T06:59:49.084Z,101119.44
2023-04-16T07:02:19.316Z,101122.63
2023-04-16T07:04:49.442Z,101127.34
2023-04-16T07:07:19.547Z,101126.50
2023-04-16T07:09:52.594Z,101127.94
2023-04-16T07:12:23.324Z,101130.28
2023-04-16T07:14:55.913Z,101133.31
2023-04-16T07:17:26.102Z,101131.00
2023-04-16T07:19:56.075Z,101136.41
2023-04-16T07:22:26.181Z,101135.25
2023-04-16T07:25:03.101Z,101143.91
2023-04-16T07:27:33.806Z,101145.13
2023-04-16T07:30:04.125Z,101150.13
2023-04-16T07:32:35.284Z,101152.63
2023-04-16T07:35:08.760Z,101155.44
2023-04-16T07:37:44.396Z,101149.94
2023-04-16T07:40:17.506Z,101154.78
2023-04-16T07:42:49.862Z,101161.63
2023-04-16T07:45:20.555Z,101164.94
2023-04-16T07:47:50.714Z,101156.13
2023-04-16T07:50:22.884Z,101159.94
2023-04-16T07:52:52.921Z,101162.44
2023-04-16T07:55:27.654Z,101170.59
2023-04-16T07:57:59.023Z,101172.06
2023-04-16T08:00:29.311Z,101170.81
2023-04-16T08:03:02.087Z,101184.44
2023-04-16T08:05:32.341Z,101174.81
2023-04-16T08:08:04.644Z,101177.97
2023-04-16T08:10:38.533Z,101179.47
2023-04-16T08:13:11.255Z,101179.53
2023-04-16T08:15:41.341Z,101179.88
2023-04-16T08:18:15.742Z,101182.06
2023-04-16T08:20:46.346Z,101192.03
2023-04-16T08:23:16.572Z,101187.22
2023-04-16T08:25:51.793Z,101188.56
2023-04-16T08:28:24.426Z,101192.19
2023-04-16T08:30:54.627Z,101196.69
2023-04-16T08:33:26.215Z,101200.00
2023-04-16T08:35:56.347Z,101205.34
2023-04-16T08:38:26.570Z,101208.03
2023-04-16T08:41:04.765Z,101206.50
2023-04-16T08:43:37.356Z,101212.81
2023-04-16T08:46:08.557Z,101212.97
2023-04-16T08:48:44.985Z,101215.13
2023-04-16T08:51:17.810Z,101213.28
2023-04-16T08:53:55.103Z,101220.22
2023-04-16T08:56:28.560Z,101220.69
2023-04-16T08:59:07.758Z,101223.69
2023-04-16T09:01:39.899Z,101228.91
2023-04-16T09:04:10.754Z,101222.28
2023-04-16T09:06:45.268Z,101222.63
2023-04-16T09:09:21.071Z,101227.13
2023-04-16T09:12:00.207Z,101225.06
2023-04-16T09:14:36.249Z,101234.13
2023-04-16T09:17:09.762Z,101242.69
2023-04-16T09:19:42.489Z,101241.22
2023-04-16T09:22:17.313Z,101247.22
2023-04-16T09:24:54.419Z,101246.53
2023-04-16T09:27:28.531Z,101243.22
2023-04-16T09:30:03.917Z,101246.56
2023-04-16T09:32:44.725Z,101258.88
2023-04-16T09:35:28.000Z,101247.69
2023-04-16T09:38:00.931Z,101250.84
2023-04-16T09:40:33.684Z,101257.00
2023-04-16T09:43:14.407Z,101257.31
2023-04-16T09:45:51.538Z,101251.63
2023-04-16T09:48:35.338Z,101263.22
2023-04-16T09:51:08.810Z,101265.53
2023-04-16T09:53:39.569Z,101266.66
2023-04-16T09:56:19.425Z,101267.47
2023-04-16T09:58:52.159Z,101260.19
2023-04-16T10:01:24.450Z,101259.19
2023-04-16T10:03:57.196Z,101265.53
2023-04-16T10:06:48.738Z,101260.88
2023-04-16T10:09:21.179Z,101270.53
2023-04-16T10:11:56.966Z,101265.09
2023-04-16T10:17:43.492Z,101280.97
2023-04-16T10:20:15.998Z,101276.03
2023-04-16T10:22:47.764Z,101277.06
2023-04-16T10:25:18.385Z,101274.03
2023-04-16T10:27:48.684Z,101271.47
2023-04-16T10:30:22.209Z,101274.31
2023-04-16T10:32:53.905Z,101273.69
2023-04-16T10:35:24.454Z,101277.06
2023-04-16T10:37:59.903Z,101279.91
2023-04-16T10:40:30.832Z,101282.41
2023-04-16T10:43:05.291Z,101283.75
2023-04-16T10:45:41.157Z,101276.69
2023-04-16T10:48:17.333Z,101278.03
2023-04-16T10:50:58.534Z,101277.06
2023-04-16T10:53:35.478Z,101278.88
2023-04-16T10:56:26.935Z,101283.97
2023-04-16T10:59:03.505Z,101284.69
2023-04-16T11:01:38.487Z,101282.13
2023-04-16T11:04:30.268Z,101282.47
2023-04-16T11:07:05.146Z,101291.81
2023-04-16T11:09:55.217Z,101304.91
2023-04-16T11:12:27.925Z,101305.94
2023-04-16T11:15:02.379Z,101299.63
2023-04-16T11:17:40.112Z,101303.31
2023-04-16T11:20:19.351Z,101299.97
2023-04-16T11:22:51.282Z,101308.63
2023-04-16T11:25:57.936Z,101299.13
2023-04-16T11:28:45.488Z,101300.59
2023-04-16T11:31:17.436Z,101303.28
2023-04-16T11:39:58.490Z,101310.31
2023-04-16T11:42:37.686Z,101309.31
2023-04-16T11:45:15.330Z,101308.34
2023-04-16T11:48:16.348Z,101308.00
2023-04-16T11:51:00.882Z,101312.66
2023-04-16T11:53:41.038Z,101313.28
2023-04-16T11:56:31.273Z,101310.63
2023-04-16T11:59:28.172Z,101309.25
2023-04-16T12:02:01.686Z,101316.91
2023-04-16T12:04:34.624Z,101325.09
2023-04-16T12:07:12.114Z,101321.97
2023-04-16T12:09:47.679Z,101330.34
2023-04-16T12:12:33.754Z,101331.03
2023-04-16T12:15:16.400Z,101333.72
2023-04-16T12:18:13.383Z,101340.50
2023-04-16T12:20:51.840Z,101336.84
2023-04-16T12:23:30.157Z,101342.66
2023-04-16T12:26:16.548Z,101341.00
2023-04-16T12:28:47.189Z,101342.31
2023-04-16T12:31:19.168Z,101338.13
2023-04-16T12:34:05.516Z,101342.13
2023-04-16T12:36:39.432Z,101340.00
2023-04-16T12:39:11.128Z,101336.63
2023-04-16T12:41:47.172Z,101345.09
2023-04-16T12:44:20.280Z,101339.25
2023-04-16T12:46:52.973Z,101347.75
2023-04-16T12:49:25.695Z,101351.59
2023-04-16T12:51:57.646Z,101351.72
2023-04-16T12:54:44.104Z,101359.72
2023-04-16T12:57:16.983Z,101354.22
2023-04-16T12:59:47.348Z,101355.47
2023-04-16T13:02:17.751Z,101354.28
2023-04-16T13:04:47.980Z,101358.28
2023-04-16T13:07:18.358Z,101355.63
2023-04-16T13:13:10.554Z,101362.28
2023-04-16T13:15:41.302Z,101362.69
2023-04-16T13:18:11.800Z,101363.88
2023-04-16T13:20:42.283Z,101363.88
2023-04-16T13:23:12.883Z,101373.19
2023-04-16T13:25:43.504Z,101372.03
2023-04-16T13:28:23.492Z,101368.88
2023-04-16T13:30:57.016Z,101366.03
2023-04-16T13:33:27.423Z,101372.56
2023-04-16T13:36:00.712Z,101372.22
2023-04-16T13:38:31.157Z,101372.22
2023-04-16T13:41:01.464Z,101375.56
2023-04-16T13:43:34.444Z,101369.25
2023-04-16T13:46:11.272Z,101368.63
2023-04-16T13:48:43.727Z,101372.63
2023-04-16T13:51:15.598Z,101370.13
2023-04-16T13:53:45.972Z,101373.97
2023-04-16T13:56:16.479Z,101375.81
2023-04-16T13:59:29.283Z,101372.00
2023-04-16T14:02:05.322Z,101374.22
2023-04-16T14:04:36.292Z,101367.41
2023-04-16T14:07:10.819Z,101372.22
2023-04-16T14:09:41.007Z,101376.41
2023-04-16T14:12:20.095Z,101371.06
2023-04-16T14:15:17.485Z,101379.09
2023-04-16T14:17:52.444Z,101381.91
2023-04-16T14:20:33.870Z,101380.09
2023-04-16T14:23:07.695Z,101368.72
2023-04-16T14:25:46.539Z,101376.88
2023-04-16T14:28:17.402Z,101371.72
2023-04-16T14:30:56.874Z,101377.22
2023-04-16T14:33:30.757Z,101385.06
2023-04-16T14:36:03.862Z,101382.72
2023-04-16T14:39:30.336Z,101382.50
2023-04-16T14:42:31.511Z,101387.00
2023-04-16T14:45:17.995Z,101388.63
2023-04-16T14:48:11.694Z,101388.56
2023-04-16T14:51:14.025Z,101389.66
2023-04-16T14:53:55.841Z,101388.94
2023-04-16T14:56:29.128Z,101390.72
2023-04-16T14:59:01.558Z,101386.31
2023-04-16T15:01:39.886Z,101390.22
2023-04-16T15:04:28.097Z,101391.81
2023-04-16T15:07:14.381Z,101388.84
2023-04-16T15:09:47.245Z,101395.69
2023-04-16T15:12:19.089Z,101398.66
2023-04-16T15:14:57.463Z,101393.88
2023-04-16T15:17:35.296Z,101395.94
2023-04-16T15:20:20.921Z,101395.94
2023-04-16T15:22:59.758Z,101394.97
2023-04-16T15:25:33.046Z,101405.03
2023-04-16T15:28:06.717Z,101401.06
2023-04-16T15:30:42.474Z,101396.41
2023-04-16T15:33:23.890Z,101407.91
2023-04-16T15:35:59.438Z,101412.22
2023-04-16T15:38:37.195Z,101408.56
2023-04-16T15:41:19.422Z,101409.09
2023-04-16T15:43:59.276Z,101413.28
2023-04-16T15:46:31.362Z,101418.97
2023-04-16T15:49:06.274Z,101418.47
2023-04-16T15:51:59.507Z,101424.78
2023-04-16T15:54:39.043Z,101417.88
2023-04-16T15:57:15.937Z,101424.34
2023-04-16T16:00:05.468Z,101423.50
2023-04-16T16:02:47.438Z,101437.16
2023-04-16T16:05:21.824Z,101441.78
2023-04-16T16:08:25.413Z,101435.63
2023-04-16T16:11:06.227Z,101443.25
2023-04-16T16:13:48.550Z,101435.44
2023-04-16T16:16:20.206Z,101435.38
2023-04-16T16:18:55.659Z,101435.16
2023-04-16T16:21:29.759Z,101441.06
2023-04-16T16:24:06.670Z,101440.03
2023-04-16T16:26:41.445Z,101436.47
2023-04-16T16:29:16.410Z,101446.28
2023-04-16T16:31:51.404Z,101444.09
2023-04-16T16:34:38.839Z,101447.66
2023-04-16T16:37:09.357Z,101448.78
2023-04-16T16:39:42.300Z,101450.63
2023-04-16T16:42:24.535Z,101445.44
2023-04-16T16:44:57.162Z,101451.03
2023-04-16T16:51:32.791Z,101453.84
2023-04-16T16:54:30.319Z,101451.91
2023-04-16T16:57:25.132Z,101456.84
2023-04-16T17:00:11.979Z,101466.97
2023-04-16T17:02:58.122Z,101469.63
2023-04-16T17:08:37.256Z,101472.97
2023-04-16T17:11:07.915Z,101474.56
2023-04-16T17:14:09.038Z,101475.41
2023-04-16T17:16:50.018Z,101478.91
2023-04-16T17:22:49.324Z,101484.44
2023-04-16T17:25:26.826Z,101487.06
2023-04-16T17:28:00.063Z,101487.81
2023-04-16T17:31:37.791Z,101491.91
2023-04-16T17:34:13.504Z,101497.66
2023-04-16T17:37:09.965Z,101490.91
2023-04-16T17:40:00.288Z,101500.47
2023-04-16T17:42:34.258Z,101506.63
2023-04-16T17:45:04.728Z,101511.63
2023-04-16T17:47:44.786Z,101514.59
2023-04-16T17:50:22.113Z,101520.75
2023-04-16T17:53:23.833Z,101521.06
2023-04-16T17:55:58.277Z,101515.91
2023-04-16T17:58:43.638Z,101518.31
2023-04-16T18:01:16.792Z,101524.06
2023-04-16T18:03:52.670Z,101526.03
2023-04-16T18:06:31.158Z,101531.19
2023-04-16T18:09:11.164Z,101529.63
2023-04-16T18:11:41.367Z,101536.06
2023-04-16T18:14:21.995Z,101540.53
2023-04-16T18:17:03.576Z,101541.66
2023-04-16T18:19:40.724Z,101549.19
2023-04-16T18:22:31.232Z,101549.19
2023-04-16T18:25:08.450Z,101552.00
2023-04-16T18:27:38.988Z,101559.97
2023-04-16T18:30:23.135Z,101559.28
2023-04-16T18:35:36.288Z,101567.09
2023-04-16T18:38:11.344Z,101565.97
2023-04-16T18:40:49.969Z,101576.19
2023-04-16T18:43:24.200Z,101573.94
2023-04-16T18:46:11.758Z,101583.72
2023-04-16T18:48:47.238Z,101581.78
2023-04-16T18:51:22.551Z,101587.50
2023-04-16T18:53:56.699Z,101590.16
2023-04-16T18:57:00.810Z,101594.34
2023-04-16T18:59:31.221Z,101583.63
2023-04-16T19:02:07.912Z,101585.69
2023-04-16T19:04:38.373Z,101586.53
2023-04-16T19:07:08.509Z,101588.94
2023-04-16T19:09:43.526Z,101592.81
2023-04-16T19:12:18.688Z,101596.03
2023-04-16T19:14:53.187Z,101598.28
2023-04-16T19:21:01.834Z,101597.03
2023-04-16T19:23:52.787Z,101590.06
2023-04-16T19:27:29.022Z,101592.72
2023-04-16T19:29:45.425Z,101594.25
2023-04-16T19:32:17.518Z,101598.56
2023-04-16T19:34:55.136Z,101595.66
2023-04-16T19:37:26.605Z,101603.19
2023-04-16T19:40:04.165Z,101603.03
2023-04-16T19:42:37.053Z,101605.13
2023-04-16T19:45:11.686Z,101605.28
2023-04-16T19:47:48.987Z,101603.06
2023-04-16T19:50:19.234Z,101608.50
2023-04-16T19:52:49.777Z,101608.50
2023-04-16T19:55:42.172Z,101607.97
2023-04-16T19:58:33.341Z,101607.53
2023-04-16T20:01:30.821Z,101602.78
2023-04-16T20:04:06.334Z,101604.59
2023-04-16T20:06:39.101Z,101607.66
2023-04-16T20:09:15.705Z,101611.31
2023-04-16T20:11:50.572Z,101606.72
2023-04-16T20:14:26.300Z,101617.19
2023-04-16T20:17:00.194Z,101612.16
2023-04-16T20:20:14.856Z,101608.81
2023-04-16T20:22:46.780Z,101611.47
2023-04-16T20:25:19.161Z,101611.06
2023-04-16T20:27:56.535Z,101608.53
2023-04-16T20:30:42.426Z,101609.06
2023-04-16T20:33:16.292Z,101605.72
2023-04-16T20:35:46.418Z,101615.22
2023-04-16T20:38:18.438Z,101609.63
2023-04-16T20:41:06.672Z,101616.75
2023-04-16T20:43:40.474Z,101621.38
2023-04-16T20:46:13.473Z,101630.31
2023-04-16T20:48:56.283Z,101624.31
2023-04-16T20:51:27.744Z,101627.66
2023-04-16T20:54:03.121Z,101626.69
2023-04-16T20:56:34.688Z,101635.91
2023-04-16T20:59:17.712Z,101624.47
2023-04-16T21:01:48.514Z,101633.53
2023-04-16T21:04:30.790Z,101637.97
2023-04-16T21:07:03.278Z,101634.91
2023-04-16T21:09:42.628Z,101639.00
2023-04-16T21:12:20.144Z,101632.28
2023-04-16T21:14:50.184Z,101637.16
2023-04-16T21:18:06.980Z,101634.63
2023-04-16T21:20:49.341Z,101633.78
2023-04-16T21:23:19.654Z,101632.81
2023-04-16T21:25:49.756Z,101630.84
2023-04-16T21:28:23.962Z,101645.38
2023-04-16T21:31:02.214Z,101632.94
2023-04-16T21:33:32.648Z,101642.88
2023-04-16T21:36:09.108Z,101638.97
2023-04-16T21:38:41.628Z,101634.50
2023-04-16T21:41:11.894Z,101639.50
2023-04-16T21:43:42.219Z,101635.59
2023-04-16T21:46:15.597Z,101637.69
2023-04-16T21:48:45.978Z,101640.06
2023-04-16T21:51:20.273Z,101642.00
2023-04-16T21:53:50.263Z,101638.38
2023-04-16T21:56:20.309Z,101643.13
2023-04-16T21:58:50.519Z,101637.00
2023-04-16T22:01:20.935Z,101640.19
2023-04-16T22:03:52.394Z,101638.66
2023-04-16T22:06:26.268Z,101640.59
2023-04-16T22:08:58.952Z,101644.50
2023-04-16T22:11:30.138Z,101642.66
2023-04-16T22:14:00.255Z,101639.44
2023-04-16T22:16:31.223Z,101642.22
2023-04-16T22:19:01.349Z,101643.72
2023-04-16T22:21:34.278Z,101653.34
2023-04-16T22:24:04.424Z,101651.69
2023-04-16T22:26:34.508Z,101652.66
2023-04-16T22:29:04.948Z,101653.22
2023-04-16T22:31:35.594Z,101650.28
2023-04-16T22:34:06.524Z,101647.06
2023-04-16T22:36:42.362Z,101659.50
2023-04-16T22:39:13.845Z,101654.91
2023-04-16T22:41:50.050Z,101655.31
2023-04-16T22:44:20.143Z,101656.13
2023-04-16T22:46:50.452Z,101655.03
2023-04-16T22:49:20.824Z,101655.16
2023-04-16T22:51:53.509Z,101656.00
2023-04-16T22:54:23.726Z,101658.88
2023-04-16T22:56:53.877Z,101662.00
2023-04-16T22:59:24.015Z,101657.94
2023-04-16T23:01:57.456Z,101654.47
2023-04-16T23:04:27.760Z,101658.47
2023-04-16T23:07:00.757Z,101659.44
2023-04-16T23:09:30.854Z,101659.94
2023-04-16T23:12:02.150Z,101661.09
2023-04-16T23:14:32.251Z,101653.84
2023-04-16T23:17:02.782Z,101657.47
2023-04-16T23:19:32.924Z,101656.50
2023-04-16T23:22:05.640Z,101658.78
2023-04-16T23:24:35.957Z,101657.41
2023-04-16T23:27:06.211Z,101655.16
2023-04-16T23:29:36.317Z,101653.84
2023-04-16T23:32:06.577Z,101657.19
2023-04-16T23:34:36.750Z,101653.34
2023-04-16T23:37:10.692Z,101664.94
2023-04-16T23:39:40.880Z,101659.06
2023-04-16T23:42:11.409Z,101657.66
2023-04-16T23:44:41.687Z,101659.16
2023-04-16T23:47:11.893Z,101652.75
2023-04-16T23:49:41.985Z,101650.13
2023-04-16T23:52:15.006Z,101655.75
2023-04-16T23:54:45.116Z,101655.59
2023-04-16T23:57:15.409Z,101652.53
2023-04-16T23:59:45.769Z,101660.88
